sensor_id;sensor_type;location;lat;lon;timestamp;P1;durP1;ratioP1;P2;durP2;ratioP2
48881;SDS011;57063;51.406;-2.402;2022-10-12T00:00:06;11.18;;;2.67;;
48881;SDS011;57063;51.406;-2.402;2022-10-12T00:02:32;14.95;;;2.90;;
48881;SDS011;57063;51.406;-2.402;2022-10-12T00:04:58;9.05;;;2.30;;
48881;SDS011;57063;51.406;-2.402;2022-10-12T00:07:23;9.10;;;2.92;;
48881;SDS011;57063;51.406;-2.402;2022-10-12T00:09:49;10.15;;;2.53;;
48881;SDS011;57063;51.406;-2.402;2022-10-12T00:12:14;12.40;;;3.00;;
48881;SDS011;57063;51.406;-2.402;2022-10-12T00:14:40;15.48;;;3.13;;
48881;SDS011;57063;51.406;-2.402;2022-10-12T00:17:05;14.20;;;2.85;;
48881;SDS011;57063;51.406;-2.402;2022-10-12T00:19:30;13.43;;;3.35;;
48881;SDS011;57063;51.406;-2.402;2022-10-12T00:21:56;13.02;;;2.75;;
48881;SDS011;57063;51.406;-2.402;2022-10-12T00:24:21;14.13;;;4.07;;
48881;SDS011;57063;51.406;-2.402;2022-10-12T00:26:48;11.68;;;3.28;;
48881;SDS011;57063;51.406;-2.402;2022-10-12T00:29:14;11.10;;;3.33;;
48881;SDS011;57063;51.406;-2.402;2022-10-12T00:31:40;10.13;;;2.53;;
48881;SDS011;57063;51.406;-2.402;2022-10-12T00:34:05;11.48;;;3.03;;
48881;SDS011;57063;51.406;-2.402;2022-10-12T00:36:32;11.82;;;3.35;;
48881;SDS011;57063;51.406;-2.402;2022-10-12T00:38:59;11.57;;;3.17;;
48881;SDS011;57063;51.406;-2.402;2022-10-12T00:41:29;13.50;;;2.95;;
48881;SDS011;57063;51.406;-2.402;2022-10-12T00:43:58;11.18;;;3.13;;
48881;SDS011;57063;51.406;-2.402;2022-10-12T00:46:38;12.70;;;2.42;;
48881;SDS011;57063;51.406;-2.402;2022-10-12T00:49:18;9.25;;;2.25;;
48881;SDS011;57063;51.406;-2.402;2022-10-12T00:51:50;11.25;;;2.28;;
48881;SDS011;57063;51.406;-2.402;2022-10-12T00:54:23;7.57;;;2.50;;
48881;SDS011;57063;51.406;-2.402;2022-10-12T00:56:52;15.27;;;2.85;;
48881;SDS011;57063;51.406;-2.402;2022-10-12T00:59:20;13.80;;;2.78;;
48881;SDS011;57063;51.406;-2.402;2022-10-12T01:01:50;18.92;;;3.70;;
48881;SDS011;57063;51.406;-2.402;2022-10-12T01:04:15;16.65;;;4.68;;
48881;SDS011;57063;51.406;-2.402;2022-10-12T01:06:41;9.98;;;2.97;;
48881;SDS011;57063;51.406;-2.402;2022-10-12T01:09:07;12.88;;;2.70;;
48881;SDS011;57063;51.406;-2.402;2022-10-12T01:11:32;17.25;;;3.15;;
48881;SDS011;57063;51.406;-2.402;2022-10-12T01:13:58;14.30;;;2.97;;
48881;SDS011;57063;51.406;-2.402;2022-10-12T01:21:50;12.82;;;3.28;;
48881;SDS011;57063;51.406;-2.402;2022-10-12T01:32:21;14.43;;;2.45;;
48881;SDS011;57063;51.406;-2.402;2022-10-12T01:35:00;10.00;;;2.40;;
48881;SDS011;57063;51.406;-2.402;2022-10-12T01:40:41;7.85;;;2.25;;
48881;SDS011;57063;51.406;-2.402;2022-10-12T01:43:12;11.15;;;2.35;;
48881;SDS011;57063;51.406;-2.402;2022-10-12T01:45:42;11.43;;;2.42;;
48881;SDS011;57063;51.406;-2.402;2022-10-12T01:48:07;11.20;;;2.55;;
48881;SDS011;57063;51.406;-2.402;2022-10-12T01:50:49;11.00;;;2.40;;
48881;SDS011;57063;51.406;-2.402;2022-10-12T01:58:49;8.25;;;2.15;;
48881;SDS011;57063;51.406;-2.402;2022-10-12T02:04:17;8.20;;;1.83;;
48881;SDS011;57063;51.406;-2.402;2022-10-12T02:06:57;12.05;;;2.45;;
48881;SDS011;57063;51.406;-2.402;2022-10-12T02:09:29;9.82;;;2.50;;
48881;SDS011;57063;51.406;-2.402;2022-10-12T02:12:09;8.15;;;1.83;;
48881;SDS011;57063;51.406;-2.402;2022-10-12T02:14:47;10.65;;;2.75;;
48881;SDS011;57063;51.406;-2.402;2022-10-12T02:17:17;10.77;;;2.63;;
48881;SDS011;57063;51.406;-2.402;2022-10-12T02:19:48;6.47;;;2.25;;
48881;SDS011;57063;51.406;-2.402;2022-10-12T02:22:19;8.57;;;2.25;;
48881;SDS011;57063;51.406;-2.402;2022-10-12T02:24:47;12.00;;;2.72;;
48881;SDS011;57063;51.406;-2.402;2022-10-12T02:27:16;11.90;;;2.78;;
48881;SDS011;57063;51.406;-2.402;2022-10-12T02:29:44;12.20;;;2.85;;
48881;SDS011;57063;51.406;-2.402;2022-10-12T02:37:23;15.35;;;3.13;;
48881;SDS011;57063;51.406;-2.402;2022-10-12T02:43:07;14.65;;;3.30;;
48881;SDS011;57063;51.406;-2.402;2022-10-12T02:45:47;10.73;;;2.90;;
48881;SDS011;57063;51.406;-2.402;2022-10-12T02:48:15;8.65;;;2.50;;
48881;SDS011;57063;51.406;-2.402;2022-10-12T02:50:44;12.10;;;3.58;;
48881;SDS011;57063;51.406;-2.402;2022-10-12T02:53:11;10.65;;;2.70;;
48881;SDS011;57063;51.406;-2.402;2022-10-12T02:55:37;14.15;;;2.40;;
48881;SDS011;57063;51.406;-2.402;2022-10-12T02:58:11;13.23;;;2.47;;
48881;SDS011;57063;51.406;-2.402;2022-10-12T03:00:37;11.02;;;2.95;;
48881;SDS011;57063;51.406;-2.402;2022-10-12T03:03:02;10.57;;;2.45;;
48881;SDS011;57063;51.406;-2.402;2022-10-12T03:05:27;8.10;;;2.47;;
48881;SDS011;57063;51.406;-2.402;2022-10-12T03:07:53;11.93;;;3.03;;
48881;SDS011;57063;51.406;-2.402;2022-10-12T03:10:18;9.82;;;2.63;;
48881;SDS011;57063;51.406;-2.402;2022-10-12T03:12:44;15.68;;;2.80;;
48881;SDS011;57063;51.406;-2.402;2022-10-12T03:15:09;10.50;;;2.45;;
48881;SDS011;57063;51.406;-2.402;2022-10-12T03:17:35;15.20;;;2.83;;
48881;SDS011;57063;51.406;-2.402;2022-10-12T03:20:00;9.98;;;2.90;;
48881;SDS011;57063;51.406;-2.402;2022-10-12T03:22:25;11.82;;;2.85;;
48881;SDS011;57063;51.406;-2.402;2022-10-12T03:24:51;8.13;;;2.42;;
48881;SDS011;57063;51.406;-2.402;2022-10-12T03:27:16;11.88;;;2.80;;
48881;SDS011;57063;51.406;-2.402;2022-10-12T03:29:42;8.50;;;2.58;;
48881;SDS011;57063;51.406;-2.402;2022-10-12T03:32:07;11.60;;;2.70;;
48881;SDS011;57063;51.406;-2.402;2022-10-12T03:34:33;10.50;;;2.92;;
48881;SDS011;57063;51.406;-2.402;2022-10-12T03:36:58;10.70;;;2.00;;
48881;SDS011;57063;51.406;-2.402;2022-10-12T03:39:23;11.50;;;3.05;;
48881;SDS011;57063;51.406;-2.402;2022-10-12T03:41:49;8.90;;;2.90;;
48881;SDS011;57063;51.406;-2.402;2022-10-12T03:44:14;9.90;;;2.78;;
48881;SDS011;57063;51.406;-2.402;2022-10-12T03:46:40;9.50;;;2.60;;
48881;SDS011;57063;51.406;-2.402;2022-10-12T03:49:05;9.93;;;3.03;;
48881;SDS011;57063;51.406;-2.402;2022-10-12T03:51:31;8.75;;;2.92;;
48881;SDS011;57063;51.406;-2.402;2022-10-12T03:53:56;8.80;;;2.40;;
48881;SDS011;57063;51.406;-2.402;2022-10-12T03:56:22;13.30;;;3.10;;
48881;SDS011;57063;51.406;-2.402;2022-10-12T03:58:47;13.23;;;3.05;;
48881;SDS011;57063;51.406;-2.402;2022-10-12T04:01:12;9.80;;;2.92;;
48881;SDS011;57063;51.406;-2.402;2022-10-12T04:03:38;5.65;;;2.03;;
48881;SDS011;57063;51.406;-2.402;2022-10-12T04:06:03;10.77;;;2.53;;
48881;SDS011;57063;51.406;-2.402;2022-10-12T04:08:29;15.68;;;3.63;;
48881;SDS011;57063;51.406;-2.402;2022-10-12T04:10:55;8.25;;;3.03;;
48881;SDS011;57063;51.406;-2.402;2022-10-12T04:13:20;15.18;;;2.70;;
48881;SDS011;57063;51.406;-2.402;2022-10-12T04:15:46;10.00;;;3.35;;
48881;SDS011;57063;51.406;-2.402;2022-10-12T04:18:11;7.63;;;2.28;;
48881;SDS011;57063;51.406;-2.402;2022-10-12T04:20:37;9.77;;;2.25;;
48881;SDS011;57063;51.406;-2.402;2022-10-12T04:23:02;11.02;;;2.40;;
48881;SDS011;57063;51.406;-2.402;2022-10-12T04:25:28;8.48;;;2.13;;
48881;SDS011;57063;51.406;-2.402;2022-10-12T04:27:53;8.35;;;2.40;;
48881;SDS011;57063;51.406;-2.402;2022-10-12T04:30:19;17.80;;;2.80;;
48881;SDS011;57063;51.406;-2.402;2022-10-12T04:32:44;6.43;;;1.80;;
48881;SDS011;57063;51.406;-2.402;2022-10-12T04:35:10;8.10;;;2.40;;
48881;SDS011;57063;51.406;-2.402;2022-10-12T04:37:35;8.85;;;2.13;;
48881;SDS011;57063;51.406;-2.402;2022-10-12T04:40:01;10.48;;;1.98;;
48881;SDS011;57063;51.406;-2.402;2022-10-12T04:42:27;14.55;;;2.50;;
48881;SDS011;57063;51.406;-2.402;2022-10-12T04:44:52;12.25;;;2.65;;
48881;SDS011;57063;51.406;-2.402;2022-10-12T04:47:18;9.00;;;2.05;;
48881;SDS011;57063;51.406;-2.402;2022-10-12T04:49:43;10.52;;;2.47;;
48881;SDS011;57063;51.406;-2.402;2022-10-12T04:52:09;9.52;;;2.38;;
48881;SDS011;57063;51.406;-2.402;2022-10-12T04:54:34;7.47;;;2.85;;
48881;SDS011;57063;51.406;-2.402;2022-10-12T04:57:00;10.15;;;2.50;;
48881;SDS011;57063;51.406;-2.402;2022-10-12T04:59:25;7.45;;;2.40;;
48881;SDS011;57063;51.406;-2.402;2022-10-12T05:01:51;8.85;;;2.90;;
48881;SDS011;57063;51.406;-2.402;2022-10-12T05:04:18;6.03;;;2.35;;
48881;SDS011;57063;51.406;-2.402;2022-10-12T05:06:43;10.98;;;2.38;;
48881;SDS011;57063;51.406;-2.402;2022-10-12T05:09:09;11.73;;;3.63;;
48881;SDS011;57063;51.406;-2.402;2022-10-12T05:11:34;6.57;;;2.30;;
48881;SDS011;57063;51.406;-2.402;2022-10-12T05:14:00;9.48;;;2.25;;
48881;SDS011;57063;51.406;-2.402;2022-10-12T05:16:25;11.27;;;2.53;;
48881;SDS011;57063;51.406;-2.402;2022-10-12T05:18:51;12.57;;;2.47;;
48881;SDS011;57063;51.406;-2.402;2022-10-12T05:21:16;7.55;;;2.25;;
48881;SDS011;57063;51.406;-2.402;2022-10-12T05:23:42;5.97;;;2.30;;
48881;SDS011;57063;51.406;-2.402;2022-10-12T05:26:07;9.85;;;2.33;;
48881;SDS011;57063;51.406;-2.402;2022-10-12T05:28:33;8.73;;;1.98;;
48881;SDS011;57063;51.406;-2.402;2022-10-12T05:30:58;11.10;;;2.40;;
48881;SDS011;57063;51.406;-2.402;2022-10-12T05:33:24;7.72;;;2.40;;
48881;SDS011;57063;51.406;-2.402;2022-10-12T05:35:49;12.65;;;2.60;;
48881;SDS011;57063;51.406;-2.402;2022-10-12T05:38:15;7.53;;;2.20;;
48881;SDS011;57063;51.406;-2.402;2022-10-12T05:40:41;9.23;;;2.20;;
48881;SDS011;57063;51.406;-2.402;2022-10-12T05:43:07;11.38;;;2.65;;
48881;SDS011;57063;51.406;-2.402;2022-10-12T05:45:32;8.23;;;2.03;;
48881;SDS011;57063;51.406;-2.402;2022-10-12T05:47:58;12.27;;;2.25;;
48881;SDS011;57063;51.406;-2.402;2022-10-12T05:50:23;10.52;;;2.10;;
48881;SDS011;57063;51.406;-2.402;2022-10-12T05:52:49;10.98;;;2.65;;
48881;SDS011;57063;51.406;-2.402;2022-10-12T05:55:14;9.57;;;2.40;;
48881;SDS011;57063;51.406;-2.402;2022-10-12T05:57:40;8.25;;;2.33;;
48881;SDS011;57063;51.406;-2.402;2022-10-12T06:00:05;14.40;;;2.33;;
48881;SDS011;57063;51.406;-2.402;2022-10-12T06:02:32;10.07;;;2.88;;
48881;SDS011;57063;51.406;-2.402;2022-10-12T06:04:58;6.55;;;2.25;;
48881;SDS011;57063;51.406;-2.402;2022-10-12T06:07:24;15.55;;;2.70;;
48881;SDS011;57063;51.406;-2.402;2022-10-12T06:09:49;10.77;;;2.40;;
48881;SDS011;57063;51.406;-2.402;2022-10-12T06:12:15;9.13;;;3.00;;
48881;SDS011;57063;51.406;-2.402;2022-10-12T06:14:41;12.20;;;2.83;;
48881;SDS011;57063;51.406;-2.402;2022-10-12T06:17:06;12.05;;;2.15;;
48881;SDS011;57063;51.406;-2.402;2022-10-12T06:19:33;7.60;;;2.17;;
48881;SDS011;57063;51.406;-2.402;2022-10-12T06:21:59;10.05;;;3.30;;
48881;SDS011;57063;51.406;-2.402;2022-10-12T06:24:25;10.02;;;2.58;;
48881;SDS011;57063;51.406;-2.402;2022-10-12T06:26:51;7.25;;;2.40;;
48881;SDS011;57063;51.406;-2.402;2022-10-12T06:29:16;8.15;;;2.63;;
48881;SDS011;57063;51.406;-2.402;2022-10-12T06:31:42;7.03;;;2.15;;
48881;SDS011;57063;51.406;-2.402;2022-10-12T06:34:07;5.85;;;2.28;;
48881;SDS011;57063;51.406;-2.402;2022-10-12T06:36:33;8.63;;;2.45;;
48881;SDS011;57063;51.406;-2.402;2022-10-12T06:38:58;7.53;;;2.38;;
48881;SDS011;57063;51.406;-2.402;2022-10-12T06:41:23;11.77;;;2.33;;
48881;SDS011;57063;51.406;-2.402;2022-10-12T06:43:49;8.35;;;2.25;;
48881;SDS011;57063;51.406;-2.402;2022-10-12T06:46:14;10.45;;;2.88;;
48881;SDS011;57063;51.406;-2.402;2022-10-12T06:48:40;18.65;;;3.20;;
48881;SDS011;57063;51.406;-2.402;2022-10-12T06:51:05;11.50;;;3.10;;
48881;SDS011;57063;51.406;-2.402;2022-10-12T06:53:31;8.48;;;2.03;;
48881;SDS011;57063;51.406;-2.402;2022-10-12T06:55:57;11.98;;;3.65;;
48881;SDS011;57063;51.406;-2.402;2022-10-12T06:58:23;13.80;;;3.05;;
48881;SDS011;57063;51.406;-2.402;2022-10-12T07:00:49;8.38;;;2.00;;
48881;SDS011;57063;51.406;-2.402;2022-10-12T07:03:14;11.00;;;2.63;;
48881;SDS011;57063;51.406;-2.402;2022-10-12T07:05:41;9.57;;;2.67;;
48881;SDS011;57063;51.406;-2.402;2022-10-12T07:08:07;9.73;;;2.30;;
48881;SDS011;57063;51.406;-2.402;2022-10-12T07:10:32;8.95;;;2.58;;
48881;SDS011;57063;51.406;-2.402;2022-10-12T07:12:58;7.72;;;2.58;;
48881;SDS011;57063;51.406;-2.402;2022-10-12T07:15:23;14.32;;;3.22;;
48881;SDS011;57063;51.406;-2.402;2022-10-12T07:17:49;11.27;;;3.05;;
48881;SDS011;57063;51.406;-2.402;2022-10-12T07:20:14;9.73;;;2.33;;
48881;SDS011;57063;51.406;-2.402;2022-10-12T07:22:40;9.35;;;2.38;;
48881;SDS011;57063;51.406;-2.402;2022-10-12T07:25:05;9.00;;;2.50;;
48881;SDS011;57063;51.406;-2.402;2022-10-12T07:27:31;8.68;;;2.80;;
48881;SDS011;57063;51.406;-2.402;2022-10-12T07:29:56;10.43;;;2.67;;
48881;SDS011;57063;51.406;-2.402;2022-10-12T07:32:22;14.02;;;3.15;;
48881;SDS011;57063;51.406;-2.402;2022-10-12T07:34:47;15.70;;;3.30;;
48881;SDS011;57063;51.406;-2.402;2022-10-12T07:37:13;12.60;;;3.53;;
48881;SDS011;57063;51.406;-2.402;2022-10-12T07:39:39;13.30;;;3.42;;
48881;SDS011;57063;51.406;-2.402;2022-10-12T07:42:05;14.98;;;3.13;;
48881;SDS011;57063;51.406;-2.402;2022-10-12T07:44:31;11.57;;;2.78;;
48881;SDS011;57063;51.406;-2.402;2022-10-12T07:46:57;12.95;;;3.53;;
48881;SDS011;57063;51.406;-2.402;2022-10-12T07:49:22;11.02;;;3.22;;
48881;SDS011;57063;51.406;-2.402;2022-10-12T07:51:48;16.30;;;4.47;;
48881;SDS011;57063;51.406;-2.402;2022-10-12T07:54:13;10.65;;;3.35;;
48881;SDS011;57063;51.406;-2.402;2022-10-12T07:56:39;16.15;;;3.58;;
48881;SDS011;57063;51.406;-2.402;2022-10-12T07:59:05;16.63;;;3.38;;
48881;SDS011;57063;51.406;-2.402;2022-10-12T08:01:31;10.73;;;2.60;;
48881;SDS011;57063;51.406;-2.402;2022-10-12T08:03:57;17.30;;;4.05;;
48881;SDS011;57063;51.406;-2.402;2022-10-12T08:06:24;15.55;;;3.17;;
48881;SDS011;57063;51.406;-2.402;2022-10-12T08:08:51;10.63;;;3.35;;
48881;SDS011;57063;51.406;-2.402;2022-10-12T08:11:18;13.77;;;3.45;;
48881;SDS011;57063;51.406;-2.402;2022-10-12T08:13:44;15.68;;;3.53;;
48881;SDS011;57063;51.406;-2.402;2022-10-12T08:16:11;11.93;;;3.10;;
48881;SDS011;57063;51.406;-2.402;2022-10-12T08:18:38;15.50;;;3.45;;
48881;SDS011;57063;51.406;-2.402;2022-10-12T08:21:05;10.32;;;3.00;;
48881;SDS011;57063;51.406;-2.402;2022-10-12T08:23:32;11.38;;;3.75;;
48881;SDS011;57063;51.406;-2.402;2022-10-12T08:25:59;12.40;;;3.55;;
48881;SDS011;57063;51.406;-2.402;2022-10-12T08:28:24;14.32;;;4.18;;
48881;SDS011;57063;51.406;-2.402;2022-10-12T08:30:50;15.55;;;3.95;;
48881;SDS011;57063;51.406;-2.402;2022-10-12T08:33:16;14.07;;;3.10;;
48881;SDS011;57063;51.406;-2.402;2022-10-12T08:35:43;14.25;;;3.42;;
48881;SDS011;57063;51.406;-2.402;2022-10-12T08:38:10;17.15;;;3.80;;
48881;SDS011;57063;51.406;-2.402;2022-10-12T08:40:46;23.90;;;3.42;;
48881;SDS011;57063;51.406;-2.402;2022-10-12T08:45:57;11.60;;;3.17;;
48881;SDS011;57063;51.406;-2.402;2022-10-12T08:48:32;8.82;;;2.58;;
48881;SDS011;57063;51.406;-2.402;2022-10-12T08:53:56;8.50;;;2.42;;
48881;SDS011;57063;51.406;-2.402;2022-10-12T08:56:30;12.75;;;2.63;;
48881;SDS011;57063;51.406;-2.402;2022-10-12T08:58:56;13.52;;;2.97;;
48881;SDS011;57063;51.406;-2.402;2022-10-12T09:01:48;9.02;;;2.60;;
48881;SDS011;57063;51.406;-2.402;2022-10-12T09:05:03;9.07;;;2.63;;
48881;SDS011;57063;51.406;-2.402;2022-10-12T09:07:26;10.73;;;3.10;;
48881;SDS011;57063;51.406;-2.402;2022-10-12T09:15:32;21.25;;;4.13;;
48881;SDS011;57063;51.406;-2.402;2022-10-12T09:18:02;15.95;;;3.72;;
48881;SDS011;57063;51.406;-2.402;2022-10-12T09:20:44;8.48;;;2.83;;
48881;SDS011;57063;51.406;-2.402;2022-10-12T09:25:40;14.00;;;3.08;;
48881;SDS011;57063;51.406;-2.402;2022-10-12T09:28:24;7.65;;;2.78;;
48881;SDS011;57063;51.406;-2.402;2022-10-12T09:31:04;8.73;;;2.40;;
48881;SDS011;57063;51.406;-2.402;2022-10-12T09:33:35;8.32;;;2.75;;
48881;SDS011;57063;51.406;-2.402;2022-10-12T09:36:04;13.93;;;2.92;;
48881;SDS011;57063;51.406;-2.402;2022-10-12T09:38:29;19.35;;;4.03;;
48881;SDS011;57063;51.406;-2.402;2022-10-12T09:40:55;10.25;;;3.33;;
48881;SDS011;57063;51.406;-2.402;2022-10-12T09:43:20;16.73;;;3.15;;
48881;SDS011;57063;51.406;-2.402;2022-10-12T09:45:46;14.43;;;3.30;;
48881;SDS011;57063;51.406;-2.402;2022-10-12T09:48:22;14.77;;;2.90;;
48881;SDS011;57063;51.406;-2.402;2022-10-12T09:50:50;17.15;;;3.00;;
48881;SDS011;57063;51.406;-2.402;2022-10-12T09:53:29;10.63;;;2.80;;
48881;SDS011;57063;51.406;-2.402;2022-10-12T09:56:07;16.50;;;3.65;;
48881;SDS011;57063;51.406;-2.402;2022-10-12T09:58:57;9.70;;;2.65;;
48881;SDS011;57063;51.406;-2.402;2022-10-12T10:01:26;12.48;;;2.35;;
48881;SDS011;57063;51.406;-2.402;2022-10-12T10:06:46;10.63;;;2.47;;
48881;SDS011;57063;51.406;-2.402;2022-10-12T10:09:45;7.20;;;1.42;;
48881;SDS011;57063;51.406;-2.402;2022-10-12T10:14:49;10.13;;;2.28;;
48881;SDS011;57063;51.406;-2.402;2022-10-12T10:17:21;9.88;;;1.85;;
48881;SDS011;57063;51.406;-2.402;2022-10-12T10:19:52;9.93;;;2.40;;
48881;SDS011;57063;51.406;-2.402;2022-10-12T10:22:19;13.88;;;2.75;;
48881;SDS011;57063;51.406;-2.402;2022-10-12T10:24:50;10.68;;;2.65;;
48881;SDS011;57063;51.406;-2.402;2022-10-12T10:27:28;13.00;;;2.22;;
48881;SDS011;57063;51.406;-2.402;2022-10-12T10:30:08;9.77;;;2.63;;
48881;SDS011;57063;51.406;-2.402;2022-10-12T10:32:39;6.38;;;2.00;;
48881;SDS011;57063;51.406;-2.402;2022-10-12T10:35:15;11.05;;;2.67;;
48881;SDS011;57063;51.406;-2.402;2022-10-12T10:40:23;13.20;;;2.45;;
48881;SDS011;57063;51.406;-2.402;2022-10-12T10:42:55;7.32;;;2.08;;
48881;SDS011;57063;51.406;-2.402;2022-10-12T10:45:27;9.68;;;2.50;;
48881;SDS011;57063;51.406;-2.402;2022-10-12T10:47:55;8.38;;;1.55;;
48881;SDS011;57063;51.406;-2.402;2022-10-12T10:50:27;7.97;;;2.25;;
48881;SDS011;57063;51.406;-2.402;2022-10-12T10:52:58;7.43;;;2.35;;
48881;SDS011;57063;51.406;-2.402;2022-10-12T10:58:29;10.95;;;2.03;;
48881;SDS011;57063;51.406;-2.402;2022-10-12T11:01:18;7.90;;;2.03;;
48881;SDS011;57063;51.406;-2.402;2022-10-12T11:03:57;7.00;;;1.63;;
48881;SDS011;57063;51.406;-2.402;2022-10-12T11:06:37;9.13;;;2.08;;
48881;SDS011;57063;51.406;-2.402;2022-10-12T11:09:17;10.90;;;2.05;;
48881;SDS011;57063;51.406;-2.402;2022-10-12T11:12:12;9.02;;;2.85;;
48881;SDS011;57063;51.406;-2.402;2022-10-12T11:14:43;10.00;;;2.17;;
48881;SDS011;57063;51.406;-2.402;2022-10-12T11:23:15;9.02;;;1.60;;
48881;SDS011;57063;51.406;-2.402;2022-10-12T11:25:30;8.38;;;2.10;;
48881;SDS011;57063;51.406;-2.402;2022-10-12T11:28:04;8.98;;;2.33;;
48881;SDS011;57063;51.406;-2.402;2022-10-12T11:30:36;12.75;;;2.10;;
48881;SDS011;57063;51.406;-2.402;2022-10-12T11:33:06;11.20;;;1.77;;
48881;SDS011;57063;51.406;-2.402;2022-10-12T11:35:48;12.70;;;2.75;;
48881;SDS011;57063;51.406;-2.402;2022-10-12T11:38:19;10.27;;;2.45;;
48881;SDS011;57063;51.406;-2.402;2022-10-12T11:41:07;7.70;;;1.88;;
48881;SDS011;57063;51.406;-2.402;2022-10-12T11:46:34;12.10;;;1.98;;
48881;SDS011;57063;51.406;-2.402;2022-10-12T11:49:12;13.98;;;2.22;;
48881;SDS011;57063;51.406;-2.402;2022-10-12T11:51:39;11.85;;;2.08;;
48881;SDS011;57063;51.406;-2.402;2022-10-12T12:05:12;6.85;;;1.80;;
48881;SDS011;57063;51.406;-2.402;2022-10-12T12:15:42;9.27;;;1.90;;
48881;SDS011;57063;51.406;-2.402;2022-10-12T12:18:27;7.28;;;1.85;;
48881;SDS011;57063;51.406;-2.402;2022-10-12T12:26:06;12.82;;;2.42;;
48881;SDS011;57063;51.406;-2.402;2022-10-12T12:28:49;9.65;;;1.90;;
48881;SDS011;57063;51.406;-2.402;2022-10-12T12:33:48;15.32;;;3.03;;
48881;SDS011;57063;51.406;-2.402;2022-10-12T12:39:18;6.53;;;1.85;;
48881;SDS011;57063;51.406;-2.402;2022-10-12T12:42:06;8.02;;;2.10;;
48881;SDS011;57063;51.406;-2.402;2022-10-12T12:52:02;10.35;;;1.85;;
48881;SDS011;57063;51.406;-2.402;2022-10-12T12:54:29;10.98;;;2.30;;
48881;SDS011;57063;51.406;-2.402;2022-10-12T13:16:02;7.47;;;2.13;;
48881;SDS011;57063;51.406;-2.402;2022-10-12T13:21:26;11.77;;;2.47;;
48881;SDS011;57063;51.406;-2.402;2022-10-12T13:26:42;11.38;;;2.40;;
48881;SDS011;57063;51.406;-2.402;2022-10-12T13:29:13;15.07;;;2.60;;
48881;SDS011;57063;51.406;-2.402;2022-10-12T13:31:44;10.88;;;1.90;;
48881;SDS011;57063;51.406;-2.402;2022-10-12T13:34:14;7.57;;;2.47;;
48881;SDS011;57063;51.406;-2.402;2022-10-12T13:39:16;8.00;;;2.35;;
48881;SDS011;57063;51.406;-2.402;2022-10-12T13:41:44;14.77;;;2.75;;
48881;SDS011;57063;51.406;-2.402;2022-10-12T13:44:19;8.93;;;2.22;;
48881;SDS011;57063;51.406;-2.402;2022-10-12T13:46:52;5.82;;;1.48;;
48881;SDS011;57063;51.406;-2.402;2022-10-12T13:49:33;7.63;;;1.60;;
48881;SDS011;57063;51.406;-2.402;2022-10-12T13:54:44;6.65;;;1.95;;
48881;SDS011;57063;51.406;-2.402;2022-10-12T13:57:33;6.60;;;1.60;;
48881;SDS011;57063;51.406;-2.402;2022-10-12T14:02:59;5.93;;;1.55;;
48881;SDS011;57063;51.406;-2.402;2022-10-12T14:05:27;8.90;;;1.67;;
48881;SDS011;57063;51.406;-2.402;2022-10-12T14:07:57;8.13;;;1.55;;
48881;SDS011;57063;51.406;-2.402;2022-10-12T14:10:33;10.77;;;1.90;;
48881;SDS011;57063;51.406;-2.402;2022-10-12T14:13:00;7.18;;;1.80;;
48881;SDS011;57063;51.406;-2.402;2022-10-12T14:15:29;9.02;;;1.85;;
48881;SDS011;57063;51.406;-2.402;2022-10-12T14:17:57;7.50;;;1.50;;
48881;SDS011;57063;51.406;-2.402;2022-10-12T14:20:27;11.10;;;1.80;;
48881;SDS011;57063;51.406;-2.402;2022-10-12T14:23:03;8.68;;;1.63;;
48881;SDS011;57063;51.406;-2.402;2022-10-12T14:25:50;9.05;;;2.08;;
48881;SDS011;57063;51.406;-2.402;2022-10-12T14:28:25;8.93;;;1.52;;
48881;SDS011;57063;51.406;-2.402;2022-10-12T14:30:54;6.63;;;1.40;;
48881;SDS011;57063;51.406;-2.402;2022-10-12T14:33:23;8.85;;;1.63;;
48881;SDS011;57063;51.406;-2.402;2022-10-12T14:35:50;11.30;;;2.05;;
48881;SDS011;57063;51.406;-2.402;2022-10-12T14:38:36;9.05;;;1.73;;
48881;SDS011;57063;51.406;-2.402;2022-10-12T14:44:17;5.40;;;1.58;;
48881;SDS011;57063;51.406;-2.402;2022-10-12T14:49:21;7.97;;;2.45;;
48881;SDS011;57063;51.406;-2.402;2022-10-12T14:51:50;9.13;;;2.00;;
48881;SDS011;57063;51.406;-2.402;2022-10-12T14:54:17;9.35;;;2.47;;
48881;SDS011;57063;51.406;-2.402;2022-10-12T14:56:43;11.63;;;2.05;;
48881;SDS011;57063;51.406;-2.402;2022-10-12T14:59:09;6.28;;;1.73;;
48881;SDS011;57063;51.406;-2.402;2022-10-12T15:01:34;11.13;;;2.15;;
48881;SDS011;57063;51.406;-2.402;2022-10-12T15:03:59;10.50;;;2.10;;
48881;SDS011;57063;51.406;-2.402;2022-10-12T15:06:25;9.98;;;2.38;;
48881;SDS011;57063;51.406;-2.402;2022-10-12T15:08:50;10.02;;;2.28;;
48881;SDS011;57063;51.406;-2.402;2022-10-12T15:11:19;10.05;;;1.80;;
48881;SDS011;57063;51.406;-2.402;2022-10-12T15:13:44;7.43;;;2.22;;
48881;SDS011;57063;51.406;-2.402;2022-10-12T15:16:15;7.00;;;2.33;;
48881;SDS011;57063;51.406;-2.402;2022-10-12T15:18:46;10.32;;;1.92;;
48881;SDS011;57063;51.406;-2.402;2022-10-12T15:21:12;11.55;;;2.42;;
48881;SDS011;57063;51.406;-2.402;2022-10-12T15:23:37;9.30;;;2.17;;
48881;SDS011;57063;51.406;-2.402;2022-10-12T15:26:03;9.57;;;3.00;;
48881;SDS011;57063;51.406;-2.402;2022-10-12T15:28:28;12.45;;;2.50;;
48881;SDS011;57063;51.406;-2.402;2022-10-12T15:30:58;11.10;;;2.47;;
48881;SDS011;57063;51.406;-2.402;2022-10-12T15:35:52;10.52;;;2.53;;
48881;SDS011;57063;51.406;-2.402;2022-10-12T15:38:17;11.30;;;2.42;;
48881;SDS011;57063;51.406;-2.402;2022-10-12T15:40:43;8.63;;;2.17;;
48881;SDS011;57063;51.406;-2.402;2022-10-12T15:43:10;9.98;;;2.88;;
48881;SDS011;57063;51.406;-2.402;2022-10-12T15:45:37;10.43;;;2.40;;
48881;SDS011;57063;51.406;-2.402;2022-10-12T15:48:04;11.10;;;1.98;;
48881;SDS011;57063;51.406;-2.402;2022-10-12T15:50:35;10.25;;;2.20;;
48881;SDS011;57063;51.406;-2.402;2022-10-12T15:53:01;11.30;;;2.05;;
48881;SDS011;57063;51.406;-2.402;2022-10-12T15:55:27;6.32;;;1.60;;
48881;SDS011;57063;51.406;-2.402;2022-10-12T15:57:54;10.18;;;2.45;;
48881;SDS011;57063;51.406;-2.402;2022-10-12T16:00:21;7.38;;;2.13;;
48881;SDS011;57063;51.406;-2.402;2022-10-12T16:02:50;5.90;;;1.67;;
48881;SDS011;57063;51.406;-2.402;2022-10-12T16:05:30;11.10;;;2.40;;
48881;SDS011;57063;51.406;-2.402;2022-10-12T16:07:57;9.55;;;2.03;;
48881;SDS011;57063;51.406;-2.402;2022-10-12T16:10:26;11.05;;;2.30;;
48881;SDS011;57063;51.406;-2.402;2022-10-12T16:12:56;5.63;;;1.85;;
48881;SDS011;57063;51.406;-2.402;2022-10-12T16:15:23;14.77;;;3.38;;
48881;SDS011;57063;51.406;-2.402;2022-10-12T16:17:53;12.48;;;2.47;;
48881;SDS011;57063;51.406;-2.402;2022-10-12T16:20:19;10.52;;;2.80;;
48881;SDS011;57063;51.406;-2.402;2022-10-12T16:22:45;14.98;;;3.80;;
48881;SDS011;57063;51.406;-2.402;2022-10-12T16:25:12;11.13;;;3.35;;
48881;SDS011;57063;51.406;-2.402;2022-10-12T16:27:38;15.90;;;3.97;;
48881;SDS011;57063;51.406;-2.402;2022-10-12T16:30:05;11.02;;;3.47;;
48881;SDS011;57063;51.406;-2.402;2022-10-12T16:32:32;9.65;;;2.90;;
48881;SDS011;57063;51.406;-2.402;2022-10-12T16:34:57;14.85;;;3.60;;
48881;SDS011;57063;51.406;-2.402;2022-10-12T16:37:23;21.02;;;4.38;;
48881;SDS011;57063;51.406;-2.402;2022-10-12T16:39:48;10.93;;;3.20;;
48881;SDS011;57063;51.406;-2.402;2022-10-12T16:42:17;11.57;;;3.50;;
48881;SDS011;57063;51.406;-2.402;2022-10-12T16:44:42;16.42;;;3.25;;
48881;SDS011;57063;51.406;-2.402;2022-10-12T16:47:08;11.55;;;2.70;;
48881;SDS011;57063;51.406;-2.402;2022-10-12T16:49:33;11.73;;;3.03;;
48881;SDS011;57063;51.406;-2.402;2022-10-12T16:51:59;12.52;;;3.15;;
48881;SDS011;57063;51.406;-2.402;2022-10-12T16:54:24;16.75;;;3.25;;
48881;SDS011;57063;51.406;-2.402;2022-10-12T16:56:52;18.92;;;3.92;;
48881;SDS011;57063;51.406;-2.402;2022-10-12T16:59:18;12.10;;;3.40;;